createdAt,value
2022-12-28T00:00:53.204Z,0.00
2022-12-28T00:01:53.163Z,0.00
2022-12-28T00:02:53.126Z,0.00
2022-12-28T00:03:53.022Z,0.00
2022-12-28T00:04:52.966Z,0.00
2022-12-28T00:05:52.908Z,0.00
2022-12-28T00:06:52.848Z,0.00
2022-12-28T00:07:52.787Z,0.00
2022-12-28T00:08:52.819Z,0.00
2022-12-28T00:09:52.664Z,0.00
2022-12-28T00:11:07.751Z,0.00
2022-12-28T00:11:52.545Z,0.00
2022-12-28T00:12:52.479Z,0.00
2022-12-28T00:13:52.438Z,0.00
2022-12-28T00:14:52.361Z,0.00
2022-12-28T00:15:52.331Z,0.00
2022-12-28T00:16:52.252Z,0.00
2022-12-28T00:17:52.184Z,0.00
2022-12-28T00:18:52.133Z,0.00
2022-12-28T00:19:52.074Z,0.00
2022-12-28T00:20:52.009Z,0.00
2022-12-28T00:21:51.945Z,0.00
2022-12-28T00:22:51.882Z,0.00
2022-12-28T00:23:51.821Z,0.00
2022-12-28T00:24:51.769Z,0.00
2022-12-28T00:25:51.707Z,0.00
2022-12-28T00:26:51.645Z,0.00
2022-12-28T00:27:51.591Z,0.00
2022-12-28T00:28:51.524Z,0.00
2022-12-28T00:29:51.482Z,0.00
2022-12-28T00:30:51.404Z,0.00
2022-12-28T00:31:51.515Z,0.00
2022-12-28T00:32:51.282Z,0.00
2022-12-28T00:33:51.226Z,0.00
2022-12-28T00:34:51.180Z,0.00
2022-12-28T00:35:51.105Z,0.00
2022-12-28T00:37:10.312Z,0.00
2022-12-28T00:37:50.989Z,0.00
2022-12-28T00:38:50.932Z,0.00
2022-12-28T00:39:50.867Z,0.00
2022-12-28T00:40:50.804Z,0.00
2022-12-28T00:41:50.752Z,0.00
2022-12-28T00:42:50.683Z,0.00
2022-12-28T00:43:50.628Z,0.00
2022-12-28T00:44:50.574Z,0.00
2022-12-28T00:45:51.518Z,0.00
2022-12-28T00:46:50.462Z,0.00
2022-12-28T00:47:50.384Z,0.00
2022-12-28T00:48:50.341Z,0.00
2022-12-28T00:49:50.276Z,0.00
2022-12-28T00:50:50.199Z,0.00
2022-12-28T00:51:50.173Z,0.00
2022-12-28T00:52:50.082Z,0.00
2022-12-28T00:53:50.027Z,0.00
2022-12-28T00:54:49.956Z,0.00
2022-12-28T00:55:49.904Z,0.00
2022-12-28T00:56:49.875Z,0.00
2022-12-28T00:57:49.782Z,0.00
2022-12-28T00:58:51.463Z,0.00
2022-12-28T00:59:49.664Z,0.00
2022-12-28T01:00:51.513Z,0.00
2022-12-28T01:01:49.703Z,0.00
2022-12-28T01:02:49.504Z,0.00
2022-12-28T01:03:49.421Z,0.00
2022-12-28T01:04:49.373Z,0.00
2022-12-28T01:05:49.303Z,0.00
2022-12-28T01:06:49.239Z,0.00
2022-12-28T01:07:49.183Z,0.00
2022-12-28T01:08:49.120Z,0.00
2022-12-28T01:09:49.071Z,0.00
2022-12-28T01:10:48.995Z,0.00
2022-12-28T01:11:48.939Z,0.00
2022-12-28T01:12:48.890Z,0.00
2022-12-28T01:13:48.842Z,0.00
2022-12-28T01:14:48.875Z,0.00
2022-12-28T01:15:48.702Z,0.00
2022-12-28T01:16:48.674Z,0.00
2022-12-28T01:17:48.589Z,0.00
2022-12-28T01:18:48.519Z,0.00
2022-12-28T01:19:53.734Z,0.00
2022-12-28T01:20:48.401Z,0.00
2022-12-28T01:21:48.336Z,0.00
2022-12-28T01:22:48.274Z,0.00
2022-12-28T01:23:48.209Z,0.00
2022-12-28T01:24:48.149Z,0.00
2022-12-28T01:25:48.105Z,0.00
2022-12-28T01:26:48.038Z,0.00
2022-12-28T01:27:47.989Z,0.00
2022-12-28T01:28:47.913Z,0.00
2022-12-28T01:29:47.864Z,0.00
2022-12-28T01:30:47.804Z,0.00
2022-12-28T01:31:47.856Z,0.00
2022-12-28T01:32:47.676Z,0.00
2022-12-28T01:33:47.626Z,0.00
2022-12-28T01:34:47.547Z,0.00
2022-12-28T01:35:47.488Z,0.00
2022-12-28T01:36:47.427Z,0.00
2022-12-28T01:37:47.363Z,0.00
2022-12-28T01:38:47.312Z,0.00
2022-12-28T01:39:47.241Z,0.00
2022-12-28T01:40:47.181Z,0.00
2022-12-28T01:41:47.119Z,0.00
2022-12-28T01:42:47.067Z,0.00
2022-12-28T01:43:47.004Z,0.00
2022-12-28T01:44:46.937Z,0.00
2022-12-28T01:45:46.915Z,0.00
2022-12-28T01:46:46.817Z,0.00
2022-12-28T01:47:46.850Z,0.00
2022-12-28T01:48:46.699Z,0.00
2022-12-28T01:49:46.649Z,0.00
2022-12-28T01:50:46.579Z,0.00
2022-12-28T01:51:46.515Z,0.00
2022-12-28T01:52:46.457Z,0.00
2022-12-28T01:53:46.399Z,0.00
2022-12-28T01:54:46.337Z,0.00
2022-12-28T01:55:46.299Z,0.00
2022-12-28T01:56:46.219Z,0.00
2022-12-28T01:57:46.157Z,0.00
2022-12-28T01:58:46.098Z,0.00
2022-12-28T01:59:46.029Z,0.00
2022-12-28T02:00:45.973Z,0.00
2022-12-28T02:01:45.963Z,0.00
2022-12-28T02:02:45.971Z,0.00
2022-12-28T02:03:45.795Z,0.00
2022-12-28T02:04:45.733Z,0.00
2022-12-28T02:05:45.685Z,0.00
2022-12-28T02:06:45.608Z,0.00
2022-12-28T02:07:45.548Z,0.00
2022-12-28T02:08:45.489Z,0.00
2022-12-28T02:09:45.428Z,0.00
2022-12-28T02:10:46.149Z,0.00
2022-12-28T02:11:45.305Z,0.00
2022-12-28T02:12:45.271Z,0.00
2022-12-28T02:13:45.186Z,0.00
2022-12-28T02:14:45.124Z,0.00
2022-12-28T02:15:45.068Z,0.00
2022-12-28T02:16:45.117Z,0.00
2022-12-28T02:17:44.940Z,0.00
2022-12-28T02:18:44.889Z,0.00
2022-12-28T02:19:44.824Z,0.00
2022-12-28T02:20:44.767Z,0.00
2022-12-28T02:21:44.710Z,0.00
2022-12-28T02:22:44.672Z,0.00
2022-12-28T02:23:44.581Z,0.00
2022-12-28T02:24:44.576Z,0.00
2022-12-28T02:25:44.503Z,0.00
2022-12-28T02:26:44.428Z,0.00
2022-12-28T02:27:44.354Z,0.00
2022-12-28T02:28:44.407Z,0.00
2022-12-28T02:29:44.225Z,0.00
2022-12-28T02:30:44.194Z,0.00
2022-12-28T02:31:44.089Z,0.00
2022-12-28T02:32:44.049Z,0.00
2022-12-28T02:33:44.002Z,0.00
2022-12-28T02:34:43.910Z,0.00
2022-12-28T02:35:43.884Z,0.00
2022-12-28T02:36:43.784Z,0.00
2022-12-28T02:37:43.753Z,0.00
2022-12-28T02:38:43.687Z,0.00
2022-12-28T02:39:43.601Z,0.00
2022-12-28T02:40:48.491Z,0.00
2022-12-28T02:41:43.475Z,0.00
2022-12-28T02:42:43.419Z,0.00
2022-12-28T02:43:57.970Z,0.00
2022-12-28T02:44:43.291Z,0.00
2022-12-28T02:45:43.309Z,0.00
2022-12-28T02:46:43.174Z,0.00
2022-12-28T02:47:43.113Z,0.00
2022-12-28T02:48:43.059Z,0.00
2022-12-28T02:49:42.998Z,0.00
2022-12-28T02:50:42.981Z,0.00
2022-12-28T02:51:42.869Z,0.00
2022-12-28T02:52:42.897Z,0.00
2022-12-28T02:53:42.766Z,0.00
2022-12-28T02:54:42.688Z,0.00
2022-12-28T02:55:42.629Z,0.00
2022-12-28T02:56:42.567Z,0.00
2022-12-28T02:57:42.631Z,0.00
2022-12-28T02:58:42.446Z,0.00
2022-12-28T02:59:42.383Z,0.00
2022-12-28T03:00:42.321Z,0.00
2022-12-28T03:01:42.385Z,0.00
2022-12-28T03:02:42.294Z,0.00
2022-12-28T03:03:42.146Z,0.00
2022-12-28T03:04:42.081Z,0.00
2022-12-28T03:05:42.018Z,0.00
2022-12-28T03:06:41.963Z,0.00
2022-12-28T03:07:41.899Z,0.00
2022-12-28T03:08:41.835Z,0.00
2022-12-28T03:09:41.784Z,0.00
2022-12-28T03:10:41.718Z,0.00
2022-12-28T03:11:41.653Z,0.00
2022-12-28T03:12:41.597Z,0.00
2022-12-28T03:13:41.540Z,0.00
2022-12-28T03:14:41.471Z,0.00
2022-12-28T03:15:41.450Z,0.00
2022-12-28T03:16:41.343Z,0.00
2022-12-28T03:17:41.305Z,0.00
2022-12-28T03:18:41.222Z,0.00
2022-12-28T03:19:41.162Z,0.00
2022-12-28T03:20:41.113Z,0.00
2022-12-28T03:21:41.046Z,0.00
2022-12-28T03:22:40.986Z,0.00
2022-12-28T03:23:40.922Z,0.00
2022-12-28T03:24:40.968Z,0.00
2022-12-28T03:25:40.805Z,0.00
2022-12-28T03:26:40.736Z,0.00
2022-12-28T03:27:40.688Z,0.00
2022-12-28T03:28:40.623Z,0.00
2022-12-28T03:29:40.603Z,0.00
2022-12-28T03:30:40.627Z,0.00
2022-12-28T03:31:40.427Z,0.00
2022-12-28T03:32:40.379Z,0.00
2022-12-28T03:33:40.312Z,0.00
2022-12-28T03:34:40.272Z,0.00
2022-12-28T03:35:40.190Z,0.00
2022-12-28T03:36:40.127Z,0.00
2022-12-28T03:37:40.070Z,0.00
2022-12-28T03:38:40.012Z,0.00
2022-12-28T03:39:39.949Z,0.00
2022-12-28T03:40:39.886Z,0.00
2022-12-28T03:41:39.837Z,0.00
2022-12-28T03:42:39.763Z,0.00
2022-12-28T03:43:39.712Z,0.00
2022-12-28T03:44:39.644Z,0.00
2022-12-28T03:45:46.102Z,0.00
2022-12-28T03:46:39.584Z,0.00
2022-12-28T03:47:39.464Z,0.00
2022-12-28T03:48:39.406Z,0.00
2022-12-28T03:49:39.335Z,0.00
2022-12-28T03:50:39.279Z,0.00
2022-12-28T03:51:39.215Z,0.00
2022-12-28T03:52:39.161Z,0.00
2022-12-28T03:53:39.099Z,0.00
2022-12-28T03:54:39.033Z,0.00
2022-12-28T03:55:38.972Z,0.00
2022-12-28T03:56:38.915Z,0.00
2022-12-28T03:57:38.861Z,0.00
2022-12-28T03:58:38.793Z,0.00
2022-12-28T03:59:38.732Z,0.00
2022-12-28T04:00:38.672Z,0.00
2022-12-28T04:01:38.747Z,0.00
2022-12-28T04:02:38.721Z,0.00
2022-12-28T04:03:38.489Z,0.00
2022-12-28T04:04:38.424Z,0.00
2022-12-28T04:05:38.392Z,0.00
2022-12-28T04:06:38.313Z,0.00
2022-12-28T04:07:38.240Z,0.00
2022-12-28T04:08:38.180Z,0.00
2022-12-28T04:09:38.119Z,0.00
2022-12-28T04:10:38.060Z,0.00
2022-12-28T04:11:38.008Z,0.00
2022-12-28T04:12:37.939Z,0.00
2022-12-28T04:13:37.905Z,0.00
2022-12-28T04:14:37.816Z,0.00
2022-12-28T04:15:37.784Z,0.00
2022-12-28T04:16:37.710Z,0.00
2022-12-28T04:17:37.645Z,0.00
2022-12-28T04:18:37.578Z,0.00
2022-12-28T04:19:37.513Z,0.00
2022-12-28T04:20:37.458Z,0.00
2022-12-28T04:21:37.412Z,0.00
2022-12-28T04:22:37.333Z,0.00
2022-12-28T04:23:37.271Z,0.00
2022-12-28T04:24:37.215Z,0.00
2022-12-28T04:25:37.153Z,0.00
2022-12-28T04:26:37.094Z,0.00
2022-12-28T04:27:37.035Z,0.00
2022-12-28T04:28:36.966Z,0.00
2022-12-28T04:29:36.913Z,0.00
2022-12-28T04:30:36.844Z,0.00
2022-12-28T04:31:36.846Z,0.00
2022-12-28T04:32:36.725Z,0.00
2022-12-28T04:33:36.670Z,0.00
2022-12-28T04:34:36.604Z,0.00
2022-12-28T04:35:36.542Z,0.00
2022-12-28T04:36:36.484Z,0.00
2022-12-28T04:37:36.422Z,0.00
2022-12-28T04:38:36.365Z,0.00
2022-12-28T04:39:54.731Z,0.00
2022-12-28T04:40:36.247Z,0.00
2022-12-28T04:41:36.175Z,0.00
2022-12-28T04:42:36.123Z,0.00
2022-12-28T04:43:36.061Z,0.00
2022-12-28T04:44:36.005Z,0.00
2022-12-28T04:45:35.943Z,0.00
2022-12-28T04:46:35.931Z,0.00
2022-12-28T04:47:35.808Z,0.00
2022-12-28T04:48:35.752Z,0.00
2022-12-28T04:49:35.703Z,0.00
2022-12-28T04:50:35.633Z,0.00
2022-12-28T04:51:35.569Z,0.00
2022-12-28T04:52:35.571Z,0.00
2022-12-28T04:53:35.458Z,0.00
2022-12-28T04:54:35.392Z,0.00
2022-12-28T04:55:35.329Z,0.00
2022-12-28T04:56:35.271Z,0.00
2022-12-28T04:57:35.204Z,0.00
2022-12-28T04:58:35.147Z,0.00
2022-12-28T04:59:35.087Z,0.00
2022-12-28T05:00:35.057Z,0.00
2022-12-28T05:01:35.134Z,0.00
2022-12-28T05:02:34.977Z,0.00
2022-12-28T05:03:34.846Z,0.00
2022-12-28T05:04:34.782Z,0.00
2022-12-28T05:05:34.722Z,0.00
2022-12-28T05:06:34.660Z,0.00
2022-12-28T05:07:34.602Z,0.00
2022-12-28T05:08:34.541Z,0.00
2022-12-28T05:09:34.476Z,0.00
2022-12-28T05:10:34.416Z,0.00
2022-12-28T05:11:34.354Z,0.00
2022-12-28T05:12:34.292Z,0.00
2022-12-28T05:13:34.238Z,0.00
2022-12-28T05:14:37.182Z,0.00
2022-12-28T05:15:34.111Z,0.00
2022-12-28T05:16:34.076Z,0.00
2022-12-28T05:17:33.995Z,0.00
2022-12-28T05:18:33.933Z,0.00
2022-12-28T05:19:33.866Z,0.00
2022-12-28T05:20:33.816Z,0.00
2022-12-28T05:21:33.748Z,0.00
2022-12-28T05:22:39.082Z,0.00
2022-12-28T05:23:33.635Z,0.00
2022-12-28T05:24:33.562Z,0.00
2022-12-28T05:25:33.525Z,0.00
2022-12-28T05:26:33.451Z,0.00
2022-12-28T05:27:33.390Z,0.00
2022-12-28T05:28:33.327Z,0.00
2022-12-28T05:29:33.265Z,0.00
2022-12-28T05:30:33.215Z,0.00
2022-12-28T05:31:33.193Z,0.00
2022-12-28T05:32:33.082Z,0.00
2022-12-28T05:33:33.029Z,0.00
2022-12-28T05:34:32.964Z,0.00
2022-12-28T05:35:32.906Z,0.00
2022-12-28T05:36:32.836Z,0.00
2022-12-28T05:37:32.779Z,0.00
2022-12-28T05:38:32.723Z,0.00
2022-12-28T05:39:32.655Z,0.00
2022-12-28T05:40:32.610Z,0.00
2022-12-28T05:41:32.545Z,0.00
2022-12-28T05:42:32.482Z,0.00
2022-12-28T05:43:32.414Z,0.00
2022-12-28T05:44:32.369Z,0.00
2022-12-28T05:45:32.297Z,0.00
2022-12-28T05:46:32.395Z,0.00
2022-12-28T05:47:32.177Z,0.00
2022-12-28T05:48:32.117Z,0.00
2022-12-28T05:49:32.062Z,0.00
2022-12-28T05:50:32.000Z,0.00
2022-12-28T05:51:33.521Z,0.00
2022-12-28T05:52:31.874Z,0.00
2022-12-28T05:53:31.809Z,0.00
2022-12-28T05:54:33.523Z,0.00
2022-12-28T05:55:33.530Z,0.00
2022-12-28T05:56:31.628Z,0.00
2022-12-28T05:57:31.563Z,0.00
2022-12-28T05:58:31.504Z,0.00
2022-12-28T05:59:31.451Z,0.00
2022-12-28T06:00:31.391Z,0.00
2022-12-28T06:01:31.627Z,0.00
2022-12-28T06:02:31.473Z,0.00
2022-12-28T06:03:31.394Z,0.00
2022-12-28T06:04:31.148Z,0.00
2022-12-28T06:05:31.095Z,0.00
2022-12-28T06:06:31.023Z,0.00
2022-12-28T06:07:30.968Z,0.00
2022-12-28T06:08:30.897Z,0.00
2022-12-28T06:09:30.842Z,0.00
2022-12-28T06:10:30.787Z,0.00
2022-12-28T06:11:30.723Z,0.00
2022-12-28T06:12:30.660Z,0.00
2022-12-28T06:13:30.597Z,0.00
2022-12-28T06:14:30.539Z,0.00
2022-12-28T06:15:30.482Z,0.00
2022-12-28T06:16:30.451Z,0.00
2022-12-28T06:17:30.355Z,0.00
2022-12-28T06:18:30.305Z,0.00
2022-12-28T06:19:30.311Z,0.00
2022-12-28T06:20:30.179Z,0.00
2022-12-28T06:21:30.130Z,0.00
2022-12-28T06:22:30.051Z,0.00
2022-12-28T06:23:29.990Z,0.00
2022-12-28T06:24:29.937Z,0.00
2022-12-28T06:25:29.872Z,0.00
2022-12-28T06:26:29.820Z,0.00
2022-12-28T06:27:29.745Z,0.00
2022-12-28T06:28:29.695Z,0.00
2022-12-28T06:29:29.731Z,0.00
2022-12-28T06:30:29.577Z,0.00
2022-12-28T06:31:29.650Z,0.00
2022-12-28T06:32:29.455Z,0.00
2022-12-28T06:33:29.384Z,0.00
2022-12-28T06:34:29.328Z,0.00
2022-12-28T06:35:29.267Z,0.00
2022-12-28T06:36:29.302Z,0.00
2022-12-28T06:37:29.151Z,0.00
2022-12-28T06:38:29.093Z,0.00
2022-12-28T06:39:29.025Z,0.00
2022-12-28T06:41:02.508Z,0.00
2022-12-28T06:41:28.912Z,0.00
2022-12-28T06:42:28.840Z,0.00
2022-12-28T06:43:28.837Z,0.00
2022-12-28T06:44:28.725Z,0.00
2022-12-28T06:45:28.887Z,0.00
2022-12-28T06:46:28.605Z,0.00
2022-12-28T06:47:28.541Z,0.00
2022-12-28T06:48:28.483Z,0.00
2022-12-28T06:49:28.415Z,0.00
2022-12-28T06:50:28.359Z,0.00
2022-12-28T06:51:28.299Z,0.00
2022-12-28T06:52:28.239Z,0.00
2022-12-28T06:53:28.194Z,0.00
2022-12-28T06:54:28.121Z,0.00
2022-12-28T06:55:28.054Z,0.00
2022-12-28T06:56:28.005Z,0.00
2022-12-28T06:57:27.940Z,0.00
2022-12-28T06:58:27.883Z,0.00
2022-12-28T06:59:27.810Z,0.00
2022-12-28T07:00:27.754Z,0.00
2022-12-28T07:01:27.823Z,0.00
2022-12-28T07:02:27.823Z,0.00
2022-12-28T07:03:27.572Z,0.00
2022-12-28T07:04:27.514Z,0.00
2022-12-28T07:05:28.016Z,0.00
2022-12-28T07:06:27.408Z,0.00
2022-12-28T07:07:27.332Z,0.00
2022-12-28T07:08:27.268Z,0.00
2022-12-28T07:09:27.218Z,0.00
2022-12-28T07:10:27.155Z,0.00
2022-12-28T07:11:27.088Z,0.00
2022-12-28T07:12:27.031Z,0.00
2022-12-28T07:13:28.478Z,0.00
2022-12-28T07:14:26.904Z,0.00
2022-12-28T07:15:26.847Z,0.00
2022-12-28T07:16:26.888Z,0.00
2022-12-28T07:17:26.727Z,0.00
2022-12-28T07:18:26.669Z,0.00
2022-12-28T07:19:26.606Z,0.00
2022-12-28T07:20:26.546Z,0.00
2022-12-28T07:21:26.486Z,0.00
2022-12-28T07:22:26.432Z,0.00
2022-12-28T07:23:26.364Z,0.00
2022-12-28T07:24:26.303Z,0.00
2022-12-28T07:25:26.257Z,0.00
2022-12-28T07:26:26.272Z,0.00
2022-12-28T07:27:26.116Z,0.00
2022-12-28T07:28:26.078Z,0.00
2022-12-28T07:29:26.001Z,0.00
2022-12-28T07:30:25.974Z,0.00
2022-12-28T07:31:25.879Z,0.00
2022-12-28T07:32:28.538Z,0.00
2022-12-28T07:33:25.756Z,0.00
2022-12-28T07:34:25.696Z,4.00
2022-12-28T07:35:25.647Z,4.00
2022-12-28T07:36:25.577Z,4.00
2022-12-28T07:37:25.515Z,4.00
2022-12-28T07:38:25.455Z,4.00
2022-12-28T07:39:25.403Z,0.00
2022-12-28T07:40:25.344Z,0.00
2022-12-28T07:41:25.380Z,0.00
2022-12-28T07:42:25.225Z,4.00
2022-12-28T07:43:25.154Z,4.00
2022-12-28T07:44:29.434Z,4.00
2022-12-28T07:45:25.045Z,4.00
2022-12-28T07:46:25.022Z,4.00
2022-12-28T07:47:24.910Z,4.00
2022-12-28T07:48:24.851Z,4.00
2022-12-28T07:49:24.799Z,4.00
2022-12-28T07:50:24.734Z,4.00
2022-12-28T07:51:24.689Z,4.00
2022-12-28T07:52:24.615Z,4.00
2022-12-28T07:53:24.553Z,4.00
2022-12-28T07:54:24.495Z,4.00
2022-12-28T07:55:24.449Z,4.00
2022-12-28T07:56:24.373Z,4.00
2022-12-28T07:57:24.323Z,8.00
2022-12-28T07:58:24.246Z,8.00
2022-12-28T07:59:30.641Z,4.00
2022-12-28T08:00:24.134Z,8.00
2022-12-28T08:01:24.209Z,8.00
2022-12-28T08:02:24.119Z,8.00
2022-12-28T08:03:23.982Z,8.00
2022-12-28T08:04:23.883Z,12.00
2022-12-28T08:05:23.835Z,12.00
2022-12-28T08:06:23.800Z,12.00
2022-12-28T08:07:23.706Z,8.00
2022-12-28T08:08:23.644Z,12.00
2022-12-28T08:09:23.591Z,12.00
2022-12-28T08:10:23.521Z,12.00
2022-12-28T08:11:23.464Z,12.00
2022-12-28T08:12:23.401Z,12.00
2022-12-28T08:13:23.352Z,16.00
2022-12-28T08:14:23.283Z,16.00
2022-12-28T08:15:23.220Z,16.00
2022-12-28T08:16:23.163Z,12.00
2022-12-28T08:17:23.141Z,12.00
2022-12-28T08:18:23.047Z,12.00
2022-12-28T08:19:22.985Z,12.00
2022-12-28T08:20:22.924Z,16.00
2022-12-28T08:21:22.871Z,16.00
2022-12-28T08:22:22.806Z,12.00
2022-12-28T08:23:22.738Z,16.00
2022-12-28T08:24:22.681Z,16.00
2022-12-28T08:25:22.624Z,16.00
2022-12-28T08:26:22.558Z,16.00
2022-12-28T08:27:22.502Z,16.00
2022-12-28T08:28:22.439Z,16.00
2022-12-28T08:29:22.393Z,16.00
2022-12-28T08:30:22.319Z,16.00
2022-12-28T08:31:22.280Z,16.00
2022-12-28T08:32:22.201Z,20.00
2022-12-28T08:33:22.152Z,16.00
2022-12-28T08:34:22.075Z,20.00
2022-12-28T08:35:22.020Z,20.00
2022-12-28T08:36:21.973Z,20.00
2022-12-28T08:37:21.895Z,24.00
2022-12-28T08:38:21.839Z,20.00
2022-12-28T08:39:21.780Z,24.00
2022-12-28T08:40:21.719Z,24.00
2022-12-28T08:41:21.661Z,24.00
2022-12-28T08:42:21.605Z,28.00
2022-12-28T08:43:21.534Z,28.00
2022-12-28T08:44:21.473Z,28.00
2022-12-28T08:45:21.437Z,32.00
2022-12-28T08:46:21.473Z,32.00
2022-12-28T08:47:21.352Z,32.00
2022-12-28T08:48:21.233Z,32.00
2022-12-28T08:49:21.181Z,32.00
2022-12-28T08:50:23.759Z,32.00
2022-12-28T08:51:21.058Z,32.00
2022-12-28T08:52:21.002Z,32.00
2022-12-28T08:53:20.931Z,28.00
2022-12-28T08:54:20.872Z,32.00
2022-12-28T08:55:20.820Z,32.00
2022-12-28T08:56:20.756Z,32.00
2022-12-28T08:57:20.696Z,32.00
2022-12-28T08:58:20.640Z,32.00
2022-12-28T08:59:20.572Z,32.00
2022-12-28T09:00:20.527Z,32.00
2022-12-28T09:01:20.621Z,36.00
2022-12-28T09:02:20.711Z,36.00
2022-12-28T09:03:20.390Z,36.00
2022-12-28T09:04:20.287Z,36.00
2022-12-28T09:05:20.215Z,36.00
2022-12-28T09:06:20.145Z,36.00
2022-12-28T09:07:20.094Z,36.00
2022-12-28T09:08:20.038Z,36.00
2022-12-28T09:09:20.072Z,36.00
2022-12-28T09:10:19.953Z,36.00
2022-12-28T09:11:19.845Z,32.00
2022-12-28T09:12:19.789Z,32.00
2022-12-28T09:13:19.728Z,32.00
2022-12-28T09:14:23.725Z,32.00
2022-12-28T09:15:19.610Z,32.00
2022-12-28T09:16:19.572Z,28.00
2022-12-28T09:17:19.496Z,28.00
2022-12-28T09:18:19.423Z,28.00
2022-12-28T09:19:19.367Z,28.00
2022-12-28T09:20:22.123Z,28.00
2022-12-28T09:21:19.252Z,28.00
2022-12-28T09:22:19.190Z,28.00
2022-12-28T09:23:19.131Z,32.00
2022-12-28T09:24:19.067Z,32.00
2022-12-28T09:25:19.008Z,28.00
2022-12-28T09:26:18.943Z,28.00
2022-12-28T09:27:18.890Z,28.00
2022-12-28T09:28:18.823Z,28.00
2022-12-28T09:29:18.771Z,24.00
2022-12-28T09:30:18.706Z,28.00
2022-12-28T09:31:18.708Z,24.00
2022-12-28T09:32:18.584Z,20.00
2022-12-28T09:33:18.528Z,20.00
2022-12-28T09:35:18.408Z,20.00
2022-12-28T09:36:18.338Z,20.00
2022-12-28T09:37:18.310Z,24.00
2022-12-28T09:38:18.227Z,24.00
2022-12-28T09:39:18.343Z,20.00
2022-12-28T09:40:18.106Z,20.00
2022-12-28T09:41:18.052Z,24.00
2022-12-28T09:42:17.994Z,28.00
2022-12-28T09:43:17.929Z,32.00
2022-12-28T09:44:17.915Z,28.00
2022-12-28T09:45:17.804Z,28.00
2022-12-28T09:46:17.832Z,24.00
2022-12-28T09:47:17.684Z,24.00
2022-12-28T09:48:17.639Z,28.00
2022-12-28T09:49:17.566Z,28.00
2022-12-28T09:50:17.624Z,36.00
2022-12-28T09:51:17.443Z,36.00
2022-12-28T09:52:17.383Z,40.00
2022-12-28T09:53:17.339Z,48.00
2022-12-28T09:54:17.273Z,40.00
2022-12-28T09:55:17.209Z,36.00
2022-12-28T09:56:17.140Z,40.00
2022-12-28T09:57:17.087Z,40.00
2022-12-28T09:58:17.028Z,52.00
2022-12-28T09:59:16.962Z,68.00
2022-12-28T10:00:17.000Z,76.00
2022-12-28T10:01:16.950Z,96.00
2022-12-28T10:02:16.864Z,96.00
2022-12-28T10:03:16.812Z,148.00
2022-12-28T10:04:16.667Z,116.00
2022-12-28T10:05:16.609Z,96.00
2022-12-28T10:06:16.545Z,108.00
2022-12-28T10:07:16.479Z,260.00
2022-12-28T10:08:16.429Z,832.00
2022-12-28T10:09:16.361Z,1252.00
2022-12-28T10:10:16.300Z,1196.00
2022-12-28T10:11:16.241Z,1252.00
2022-12-28T10:12:16.261Z,1204.00
2022-12-28T10:13:45.489Z,1032.00
2022-12-28T10:14:16.067Z,340.00
2022-12-28T10:15:16.010Z,172.00
2022-12-28T10:16:16.045Z,96.00
2022-12-28T10:17:15.878Z,156.00
2022-12-28T10:18:15.819Z,88.00
2022-12-28T10:19:15.769Z,44.00
2022-12-28T10:20:15.700Z,52.00
2022-12-28T10:21:15.655Z,116.00
2022-12-28T10:22:15.588Z,40.00
2022-12-28T10:23:15.525Z,36.00
2022-12-28T10:24:32.114Z,52.00
2022-12-28T10:25:15.402Z,124.00
2022-12-28T10:26:15.341Z,156.00
2022-12-28T10:27:15.279Z,100.00
2022-12-28T10:28:15.215Z,84.00
2022-12-28T10:29:15.254Z,48.00
2022-12-28T10:30:15.109Z,48.00
2022-12-28T10:31:15.062Z,52.00
2022-12-28T10:32:14.988Z,52.00
2022-12-28T10:33:14.924Z,60.00
2022-12-28T10:34:14.863Z,60.00
2022-12-28T10:35:14.819Z,52.00
2022-12-28T10:36:14.808Z,44.00
2022-12-28T10:37:15.513Z,52.00
2022-12-28T10:38:14.619Z,68.00
2022-12-28T10:39:14.562Z,108.00
2022-12-28T10:40:14.509Z,168.00
2022-12-28T10:41:14.455Z,412.00
2022-12-28T10:42:14.379Z,412.00
2022-12-28T10:43:14.324Z,308.00
2022-12-28T10:45:14.206Z,1300.00
2022-12-28T10:46:14.220Z,1508.00
2022-12-28T10:47:14.105Z,1544.00
2022-12-28T10:48:14.017Z,1952.00
2022-12-28T10:49:15.887Z,1556.00
2022-12-28T10:50:38.682Z,612.00
2022-12-28T10:51:13.840Z,960.00
2022-12-28T10:52:13.778Z,616.00
2022-12-28T10:53:13.730Z,456.00
2022-12-28T10:54:13.667Z,408.00
2022-12-28T10:55:13.604Z,404.00
2022-12-28T10:56:13.595Z,352.00
2022-12-28T10:57:13.479Z,340.00
2022-12-28T10:58:30.616Z,412.00
2022-12-28T10:59:13.406Z,316.00
2022-12-28T11:00:13.312Z,192.00
2022-12-28T11:01:13.488Z,152.00
2022-12-28T11:02:13.493Z,160.00
2022-12-28T11:03:13.243Z,128.00
2022-12-28T11:03:20.911Z,496.00
2022-12-28T11:04:13.074Z,124.00
2022-12-28T11:05:13.003Z,144.00
2022-12-28T11:06:12.946Z,156.00
2022-12-28T11:07:12.882Z,140.00
2022-12-28T11:08:12.824Z,132.00
2022-12-28T11:09:12.843Z,124.00
2022-12-28T11:10:12.706Z,60.00
2022-12-28T11:11:12.651Z,56.00
2022-12-28T11:12:12.582Z,56.00
2022-12-28T11:13:15.800Z,52.00
2022-12-28T11:14:12.473Z,44.00
2022-12-28T11:15:12.430Z,52.00
2022-12-28T11:16:12.406Z,56.00
2022-12-28T11:17:12.288Z,56.00
2022-12-28T11:18:12.225Z,72.00
2022-12-28T11:19:12.169Z,80.00
2022-12-28T11:20:12.102Z,76.00
2022-12-28T11:21:12.048Z,92.00
2022-12-28T11:22:11.988Z,100.00
2022-12-28T11:23:11.926Z,164.00
2022-12-28T11:24:11.868Z,204.00
2022-12-28T11:25:11.818Z,220.00
2022-12-28T11:26:11.752Z,216.00
2022-12-28T11:27:11.690Z,188.00
2022-12-28T11:28:11.623Z,180.00
2022-12-28T11:29:11.569Z,180.00
2022-12-28T11:30:17.157Z,156.00
2022-12-28T11:31:11.481Z,136.00
2022-12-28T11:32:11.386Z,144.00
2022-12-28T11:33:11.327Z,164.00
2022-12-28T11:34:11.303Z,204.00
2022-12-28T11:35:11.218Z,380.00
2022-12-28T11:36:11.156Z,708.00
2022-12-28T11:37:11.098Z,432.00
2022-12-28T11:38:11.043Z,356.00
2022-12-28T11:39:10.983Z,388.00
2022-12-28T11:40:10.909Z,868.00
2022-12-28T11:41:10.866Z,808.00
2022-12-28T11:42:37.816Z,812.00
2022-12-28T11:43:10.734Z,816.00
2022-12-28T11:44:10.666Z,704.00
2022-12-28T11:45:10.653Z,684.00
2022-12-28T11:46:10.599Z,464.00
2022-12-28T11:47:10.491Z,380.00
2022-12-28T11:48:10.433Z,300.00
2022-12-28T11:49:10.374Z,288.00
2022-12-28T11:50:10.315Z,292.00
2022-12-28T11:51:10.248Z,212.00
2022-12-28T11:52:10.192Z,220.00
2022-12-28T11:53:13.886Z,224.00
2022-12-28T11:54:10.072Z,172.00
2022-12-28T11:55:10.018Z,212.00
2022-12-28T11:56:09.952Z,128.00
2022-12-28T11:57:09.907Z,132.00
2022-12-28T11:58:09.841Z,124.00
2022-12-28T11:59:09.783Z,116.00
2022-12-28T12:00:09.713Z,120.00
2022-12-28T12:01:09.724Z,128.00
2022-12-28T12:02:09.668Z,124.00
2022-12-28T12:03:09.576Z,112.00
2022-12-28T12:04:09.480Z,120.00
2022-12-28T12:05:09.421Z,128.00
2022-12-28T12:06:09.365Z,128.00
2022-12-28T12:07:09.300Z,136.00
2022-12-28T12:08:09.239Z,128.00
2022-12-28T12:09:09.187Z,128.00
2022-12-28T12:10:09.123Z,116.00
2022-12-28T12:11:09.073Z,116.00
2022-12-28T12:12:13.034Z,124.00
2022-12-28T12:13:08.951Z,128.00
2022-12-28T12:14:08.887Z,196.00
2022-12-28T12:15:08.822Z,160.00
2022-12-28T12:16:08.763Z,180.00
2022-12-28T12:17:08.758Z,172.00
2022-12-28T12:18:08.648Z,172.00
2022-12-28T12:19:08.588Z,160.00
2022-12-28T12:20:08.520Z,160.00
2022-12-28T12:21:15.165Z,192.00
2022-12-28T12:22:08.404Z,200.00
2022-12-28T12:23:09.053Z,208.00
2022-12-28T12:24:08.294Z,216.00
2022-12-28T12:25:08.225Z,216.00
2022-12-28T12:26:08.172Z,204.00
2022-12-28T12:27:11.995Z,140.00
2022-12-28T12:28:08.050Z,164.00
2022-12-28T12:29:07.989Z,176.00
2022-12-28T12:30:07.952Z,236.00
2022-12-28T12:31:07.943Z,232.00
2022-12-28T12:32:07.805Z,228.00
2022-12-28T12:33:07.746Z,220.00
2022-12-28T12:34:07.693Z,168.00
2022-12-28T12:35:07.650Z,128.00
2022-12-28T12:36:07.564Z,80.00
2022-12-28T12:37:07.510Z,72.00
2022-12-28T12:38:07.450Z,72.00
2022-12-28T12:39:07.397Z,76.00
2022-12-28T12:40:07.335Z,84.00
2022-12-28T12:41:07.369Z,92.00
2022-12-28T12:42:07.223Z,84.00
2022-12-28T12:43:07.146Z,80.00
2022-12-28T12:44:07.102Z,80.00
2022-12-28T12:45:07.041Z,76.00
2022-12-28T12:46:07.009Z,68.00
2022-12-28T12:47:06.911Z,72.00
2022-12-28T12:48:06.857Z,84.00
2022-12-28T12:49:06.795Z,72.00
2022-12-28T12:50:06.756Z,128.00
2022-12-28T12:51:06.679Z,116.00
2022-12-28T12:52:06.614Z,128.00
2022-12-28T12:53:06.559Z,112.00
2022-12-28T12:54:06.497Z,124.00
2022-12-28T12:55:06.440Z,152.00
2022-12-28T12:56:06.386Z,120.00
2022-12-28T12:57:06.313Z,108.00
2022-12-28T12:58:06.269Z,88.00
2022-12-28T12:59:06.194Z,80.00
2022-12-28T13:00:06.146Z,124.00
2022-12-28T13:01:06.157Z,120.00
2022-12-28T13:02:06.174Z,96.00
2022-12-28T13:03:06.023Z,100.00
2022-12-28T13:04:05.903Z,108.00